Time;durP1;ratioP1;P1;durP2;ratioP2;P2;SDS_P1;SDS_P2;PMS_P1;PMS_P2;Temp;Humidity;BMP_temperature;BMP_pressure;BME280_temperature;BME280_humidity;BME280_pressure;Samples;Min_cycle;Max_cycle;Signal;HPM_P1;HPM_P2
2021/04/26 00:02:20;;;;;;;2.90;2.50;;;4.40;68.70;;;;;;4936072;29;20864;-76
2021/04/26 00:04:47;;;;;;;2.60;2.10;;;4.30;68.80;;;;;;4937717;29;20773;-76
2021/04/26 00:07:14;;;;;;;3.13;2.23;;;4.30;68.90;;;;;;4937355;29;20473;-76
2021/04/26 00:09:41;;;;;;;2.60;1.93;;;4.20;69.00;;;;;;4935134;29;20539;-76
2021/04/26 00:12:08;;;;;;;3.83;2.10;;;4.20;69.10;;;;;;4936844;29;20462;-76
2021/04/26 00:14:36;;;;;;;2.80;2.00;;;4.20;69.20;;;;;;4935926;29;20538;-76
2021/04/26 00:17:04;;;;;;;3.20;2.50;;;4.10;69.20;;;;;;4935921;29;20908;-76
2021/04/26 00:19:31;;;;;;;3.73;2.60;;;4.10;69.30;;;;;;4937145;29;20929;-76
2021/04/26 00:21:58;;;;;;;3.37;2.27;;;4.10;69.50;;;;;;4923843;29;20487;-76
2021/04/26 00:24:25;;;;;;;3.10;2.47;;;4.00;69.50;;;;;;4918048;29;20441;-76
2021/04/26 00:26:52;;;;;;;4.57;2.43;;;4.00;69.50;;;;;;4928542;29;20535;-76
2021/04/26 00:29:19;;;;;;;3.87;2.73;;;4.00;69.50;;;;;;4934314;29;20464;-77
2021/04/26 00:31:47;;;;;;;4.10;2.50;;;3.90;69.60;;;;;;4916670;29;20455;-77
2021/04/26 00:34:15;;;;;;;5.57;3.00;;;3.80;69.60;;;;;;4917822;29;20452;-76
2021/04/26 00:36:42;;;;;;;3.93;3.40;;;3.80;69.70;;;;;;4927512;29;21048;-76
2021/04/26 00:39:09;;;;;;;3.33;3.00;;;3.80;69.90;;;;;;4935544;29;20455;-76
2021/04/26 00:41:36;;;;;;;3.20;2.63;;;3.90;72.20;;;;;;4935775;29;20672;-76
2021/04/26 00:44:04;;;;;;;3.63;2.60;;;3.90;71.70;;;;;;4926613;29;20552;-76
2021/04/26 00:46:31;;;;;;;4.70;2.80;;;3.80;71.40;;;;;;4916182;29;20465;-76
2021/04/26 00:48:59;;;;;;;4.47;2.40;;;3.80;71.30;;;;;;4915603;29;20528;-76
2021/04/26 00:51:27;;;;;;;6.43;2.80;;;3.70;71.20;;;;;;4925613;29;20495;-76
2021/04/26 00:53:54;;;;;;;2.70;1.87;;;3.70;71.30;;;;;;4935216;29;20468;-76
2021/04/26 00:56:22;;;;;;;5.17;2.40;;;3.60;71.20;;;;;;4935198;29;20468;-76
2021/04/26 00:58:49;;;;;;;4.37;3.00;;;3.60;71.20;;;;;;4936431;29;20984;-76
2021/04/26 01:01:17;;;;;;;4.13;2.20;;;3.50;71.20;;;;;;4936733;29;20794;-76
2021/04/26 01:03:47;;;;;;;3.73;2.33;;;3.50;71.20;;;;;;4935012;29;20476;-76
2021/04/26 01:06:16;;;;;;;3.20;2.20;;;3.40;71.20;;;;;;4935028;29;20552;-76
2021/04/26 01:08:43;;;;;;;3.90;2.43;;;3.40;71.30;;;;;;4935054;29;20476;-76
2021/04/26 01:11:36;;;;;;;3.00;2.07;;;3.40;71.40;;;;;;4936238;29;20469;-76
2021/04/26 01:14:20;;;;;;;3.03;2.00;;;3.40;71.60;;;;;;4934962;29;20441;-76
2021/04/26 01:16:55;;;;;;;3.07;2.30;;;3.30;71.70;;;;;;4934881;29;20468;-76
2021/04/26 01:20:03;;;;;;;3.70;2.07;;;3.20;72.00;;;;;;4921168;29;20532;-76
2021/04/26 01:22:56;;;;;;;3.73;2.40;;;3.20;72.20;;;;;;4917101;29;20963;-76
2021/04/26 01:25:25;;;;;;;5.40;2.50;;;3.20;72.20;;;;;;4916135;29;20807;-76
2021/04/26 01:28:14;;;;;;;4.30;2.47;;;3.10;72.30;;;;;;4917080;29;20428;-76
2021/04/26 01:30:47;;;;;;;3.40;2.17;;;3.10;73.10;;;;;;4915847;29;20441;-76
2021/04/26 01:33:23;;;;;;;3.37;2.30;;;3.10;72.50;;;;;;4915745;29;20491;-76
2021/04/26 01:35:57;;;;;;;3.30;2.60;;;3.10;72.60;;;;;;4916938;29;20496;-76
2021/04/26 01:38:27;;;;;;;5.03;3.27;;;3.10;72.70;;;;;;4917068;29;20885;-76
2021/04/26 01:40:57;;;;;;;3.30;2.10;;;3.00;72.70;;;;;;4923690;29;20596;-76
2021/04/26 01:43:27;;;;;;;6.20;2.33;;;3.00;72.70;;;;;;4934621;29;20472;-76
2021/04/26 01:45:58;;;;;;;3.00;2.43;;;3.00;72.80;;;;;;4934805;29;20471;-76
2021/04/26 01:48:30;;;;;;;3.60;2.50;;;3.00;72.90;;;;;;4936022;29;20434;-76
2021/04/26 01:51:02;;;;;;;3.10;2.47;;;3.00;73.20;;;;;;4934705;29;20824;-76
2021/04/26 01:53:31;;;;;;;2.43;2.20;;;2.90;73.10;;;;;;4935859;29;20467;-76
2021/04/26 01:56:05;;;;;;;3.43;2.53;;;2.90;73.10;;;;;;4935702;29;21007;-76
2021/04/26 01:58:50;;;;;;;3.70;1.90;;;2.90;73.10;;;;;;4935815;29;20455;-76
2021/04/26 02:01:22;;;;;;;3.00;2.40;;;2.80;73.10;;;;;;4927826;29;20869;-76
2021/04/26 02:03:55;;;;;;;4.67;2.37;;;2.80;73.10;;;;;;4920876;29;20527;-76
2021/04/26 02:06:40;;;;;;;4.80;2.33;;;2.80;73.10;;;;;;4919546;29;20865;-76
2021/04/26 02:09:39;;;;;;;3.20;2.53;;;2.80;73.30;;;;;;4908188;29;20809;-76
2021/04/26 02:12:16;;;;;;;3.67;2.20;;;2.80;73.50;;;;;;4916082;29;20479;-76
2021/04/26 02:14:46;;;;;;;4.03;2.40;;;2.80;73.40;;;;;;4901865;29;20921;-76
2021/04/26 02:17:16;;;;;;;3.20;2.90;;;2.80;73.50;;;;;;4900452;29;20978;-76
2021/04/26 02:19:47;;;;;;;3.57;2.70;;;2.70;73.50;;;;;;4916145;29;20458;-76
2021/04/26 02:22:16;;;;;;;6.73;3.10;;;2.70;73.70;;;;;;4899979;29;20476;-76
2021/04/26 02:24:54;;;;;;;3.10;2.40;;;2.70;73.70;;;;;;4901842;29;20508;-76
2021/04/26 02:27:21;;;;;;;4.93;2.20;;;2.70;73.70;;;;;;4916047;29;20464;-76
2021/04/26 02:29:49;;;;;;;5.00;2.50;;;2.60;73.60;;;;;;4900007;29;20464;-76
2021/04/26 02:32:31;;;;;;;5.87;3.10;;;2.60;73.80;;;;;;4912761;29;20476;-76
2021/04/26 02:35:27;;;;;;;4.83;2.67;;;2.60;74.20;;;;;;4922960;29;21016;-76
2021/04/26 02:37:59;;;;;;;3.00;2.70;;;2.60;74.40;;;;;;4937645;29;20539;-76
2021/04/26 02:40:31;;;;;;;6.90;3.23;;;2.60;74.60;;;;;;4937719;29;20953;-76
2021/04/26 02:43:00;;;;;;;4.27;3.00;;;2.50;74.60;;;;;;4937657;29;20471;-77
2021/04/26 02:45:34;;;;;;;3.57;3.27;;;2.50;74.80;;;;;;4937666;29;21032;-77
2021/04/26 02:48:04;;;;;;;4.00;2.93;;;2.50;75.10;;;;;;4937854;29;20462;-77
2021/04/26 02:50:36;;;;;;;3.50;3.20;;;2.50;75.20;;;;;;4935198;29;20479;-77
2021/04/26 02:53:10;;;;;;;4.40;3.50;;;2.50;75.40;;;;;;4923372;29;20483;-77
2021/04/26 02:55:38;;;;;;;5.13;3.60;;;2.50;75.60;;;;;;4919662;29;20468;-77
2021/04/26 02:58:07;;;;;;;4.37;3.40;;;2.50;75.80;;;;;;4932911;29;20968;-76
2021/04/26 03:00:36;;;;;;;3.83;3.30;;;2.50;76.00;;;;;;4937421;29;20482;-76
2021/04/26 03:03:31;;;;;;;3.90;3.50;;;2.50;76.30;;;;;;4945025;29;20500;-76
2021/04/26 03:06:04;;;;;;;5.03;3.43;;;2.50;76.40;;;;;;4938613;29;20466;-76
2021/04/26 03:08:38;;;;;;;4.70;3.30;;;2.40;76.60;;;;;;4932002;29;20463;-76
2021/04/26 03:11:07;;;;;;;9.93;3.93;;;2.40;76.80;;;;;;4918016;29;20495;-76
2021/04/26 03:13:36;;;;;;;4.80;4.30;;;2.40;77.10;;;;;;4917332;29;20486;-76
2021/04/26 03:16:05;;;;;;;4.10;3.30;;;2.40;77.30;;;;;;4918191;29;20479;-76
2021/04/26 03:18:34;;;;;;;4.23;3.70;;;2.40;77.30;;;;;;4921766;29;20468;-76
2021/04/26 03:21:03;;;;;;;5.35;3.80;;;2.40;77.40;;;;;;4937429;29;20449;-76
2021/04/26 03:23:33;;;;;;;4.63;3.50;;;2.50;79.20;;;;;;4936826;29;20218;-76
2021/04/26 03:26:02;;;;;;;4.47;3.53;;;2.50;78.90;;;;;;4936825;29;20521;-76
2021/04/26 03:28:32;;;;;;;5.63;3.57;;;2.50;78.80;;;;;;4938034;29;20438;-76
2021/04/26 03:31:04;;;;;;;6.30;4.10;;;2.40;78.70;;;;;;4936681;29;20450;-76
2021/04/26 03:33:43;;;;;;;4.80;3.57;;;2.40;78.90;;;;;;4937007;29;20480;-76
2021/04/26 03:36:12;;;;;;;5.27;4.30;;;2.40;78.90;;;;;;4937873;29;20481;-76
2021/04/26 03:38:39;;;;;;;4.83;3.67;;;2.40;79.20;;;;;;4937803;29;20533;-76
2021/04/26 03:41:07;;;;;;;5.00;3.83;;;2.30;79.20;;;;;;4936611;29;20463;-76
2021/04/26 03:43:34;;;;;;;7.63;3.80;;;2.40;79.50;;;;;;4937851;29;20809;-76
2021/04/26 03:46:09;;;;;;;4.90;3.77;;;2.40;79.50;;;;;;4937781;29;20434;-76
2021/04/26 03:48:54;;;;;;;7.17;3.30;;;2.50;79.70;;;;;;4938026;29;20442;-76
2021/04/26 03:51:47;;;;;;;8.27;3.37;;;2.40;79.70;;;;;;4934524;29;20976;-76
2021/04/26 03:54:45;;;;;;;6.20;3.93;;;2.40;79.70;;;;;;4899223;29;20480;-76
2021/04/26 03:57:12;;;;;;;5.20;4.70;;;2.40;79.70;;;;;;4927422;29;20475;-76
2021/04/26 03:59:39;;;;;;;4.93;3.77;;;2.50;79.80;;;;;;4936254;29;20510;-76
2021/04/26 04:02:06;;;;;;;5.73;4.03;;;2.50;80.10;;;;;;4933679;29;20899;-76
2021/04/26 04:04:42;;;;;;;5.57;4.50;;;2.50;80.10;;;;;;4919484;29;20427;-77
2021/04/26 04:07:30;;;;;;;5.30;4.30;;;2.50;80.10;;;;;;4923640;29;20559;-77
2021/04/26 04:10:11;;;;;;;5.07;4.57;;;2.50;80.30;;;;;;4928403;29;20451;-77
2021/04/26 04:12:57;;;;;;;5.67;4.47;;;2.40;80.40;;;;;;4918525;29;20471;-77
2021/04/26 04:15:25;;;;;;;8.10;4.40;;;2.40;80.40;;;;;;4916820;29;20457;-77
2021/04/26 04:17:53;;;;;;;5.80;4.87;;;2.50;80.60;;;;;;4917500;29;20538;-77
2021/04/26 04:20:25;;;;;;;7.70;5.23;;;2.50;80.60;;;;;;4917083;29;20459;-77
2021/04/26 04:22:54;;;;;;;6.60;4.00;;;2.40;80.80;;;;;;4924648;29;20550;-77
2021/04/26 04:25:21;;;;;;;4.80;4.07;;;2.40;81.10;;;;;;4934843;29;20479;-77
2021/04/26 04:27:49;;;;;;;6.03;5.00;;;2.40;81.20;;;;;;4935991;29;20467;-77
2021/04/26 04:30:18;;;;;;;7.57;5.43;;;2.40;81.40;;;;;;4919450;29;20544;-77
2021/04/26 04:33:04;;;;;;;9.83;4.23;;;2.40;81.60;;;;;;4918384;29;20599;-77
2021/04/26 04:35:52;;;;;;;7.60;5.20;;;2.40;81.70;;;;;;4926504;29;20467;-77
2021/04/26 04:38:59;;;;;;;8.63;4.87;;;2.40;81.80;;;;;;4934811;29;20458;-77
2021/04/26 04:41:47;;;;;;;8.13;4.60;;;2.40;81.90;;;;;;4934559;29;20459;-77
2021/04/26 04:44:15;;;;;;;8.90;4.50;;;2.40;82.00;;;;;;4929888;29;20455;-77
2021/04/26 04:46:42;;;;;;;9.20;5.40;;;2.40;82.10;;;;;;4935537;29;20547;-77
2021/04/26 04:49:16;;;;;;;8.10;4.70;;;2.40;82.30;;;;;;4917829;29;20560;-76
2021/04/26 04:51:44;;;;;;;8.23;4.67;;;2.40;82.40;;;;;;4916466;29;20440;-77
2021/04/26 04:54:15;;;;;;;5.83;4.80;;;2.40;82.60;;;;;;4917988;29;20499;-77
2021/04/26 04:56:52;;;;;;;7.70;5.20;;;2.40;82.70;;;;;;4916359;29;20465;-77
2021/04/26 04:59:20;;;;;;;5.40;4.40;;;2.50;82.80;;;;;;4931626;29;20469;-77
2021/04/26 05:01:55;;;;;;;7.30;5.07;;;2.50;82.90;;;;;;4934566;29;20569;-77
2021/04/26 05:04:41;;;;;;;6.63;5.53;;;2.50;83.10;;;;;;4921520;29;20502;-77
2021/04/26 05:07:20;;;;;;;9.57;5.60;;;2.50;83.10;;;;;;4917505;29;20917;-76
2021/04/26 05:10:08;;;;;;;7.30;5.80;;;2.50;83.40;;;;;;4917625;29;20534;-77
2021/04/26 05:13:08;;;;;;;6.87;5.93;;;2.50;83.50;;;;;;4917216;29;20485;-76
2021/04/26 05:15:41;;;;;;;9.53;5.37;;;2.50;83.60;;;;;;4916029;29;20483;-76
2021/04/26 05:18:08;;;;;;;7.80;5.83;;;2.60;83.70;;;;;;4917317;29;20536;-77
2021/04/26 05:20:36;;;;;;;8.57;6.17;;;2.60;83.90;;;;;;4915978;29;20448;-77
2021/04/26 05:23:04;;;;;;;8.00;6.03;;;2.60;84.20;;;;;;4917377;29;20522;-77
2021/04/26 05:25:32;;;;;;;8.50;6.70;;;2.70;84.40;;;;;;4915901;29;20536;-76
2021/04/26 05:27:59;;;;;;;8.50;6.07;;;2.70;84.50;;;;;;4916192;29;20459;-77
2021/04/26 05:30:28;;;;;;;7.27;6.37;;;2.70;84.70;;;;;;4915868;29;20542;-77
2021/04/26 05:32:58;;;;;;;9.80;5.93;;;2.80;85.00;;;;;;4915867;29;20475;-77
2021/04/26 05:35:44;;;;;;;10.67;7.50;;;2.80;85.00;;;;;;4918379;29;20439;-75
2021/04/26 05:38:17;;;;;;;8.70;7.10;;;2.80;85.30;;;;;;4915719;29;20466;-77
2021/04/26 05:40:48;;;;;;;7.87;6.70;;;2.90;85.60;;;;;;4915863;29;20448;-77
2021/04/26 05:43:17;;;;;;;7.83;7.00;;;2.90;85.80;;;;;;4917068;29;20459;-77
2021/04/26 05:45:47;;;;;;;15.90;7.33;;;3.00;86.10;;;;;;4916029;29;20544;-77
2021/04/26 05:48:17;;;;;;;9.40;6.80;;;3.10;86.40;;;;;;4917857;29;20793;-77
2021/04/26 05:50:44;;;;;;;8.50;6.20;;;3.10;86.60;;;;;;4915748;29;20544;-77
2021/04/26 05:53:11;;;;;;;7.63;5.90;;;3.20;86.70;;;;;;4915605;29;20486;-77
2021/04/26 05:55:38;;;;;;;7.87;5.60;;;3.30;87.00;;;;;;4916845;29;20915;-77
2021/04/26 05:58:06;;;;;;;7.13;6.40;;;3.50;87.20;;;;;;4917140;29;20870;-76
2021/04/26 06:00:33;;;;;;;6.17;5.50;;;3.70;87.40;;;;;;4915631;29;20513;-78
2021/04/26 06:03:00;;;;;;;7.57;5.60;;;4.00;87.60;;;;;;4915645;29;20496;-77
2021/04/26 06:05:27;;;;;;;7.23;5.27;;;4.30;87.90;;;;;;4915581;29;20460;-77
2021/04/26 06:07:55;;;;;;;8.80;5.67;;;4.60;88.20;;;;;;4916801;29;20430;-78
2021/04/26 06:10:22;;;;;;;8.55;5.68;;;4.90;88.40;;;;;;4916148;29;20865;-77
2021/04/26 06:12:49;;;;;;;7.07;5.27;;;5.30;89.80;;;;;;4915370;29;20565;-77
2021/04/26 06:15:17;;;;;;;6.47;4.67;;;5.60;89.50;;;;;;4915624;29;20475;-77
2021/04/26 06:17:44;;;;;;;5.63;4.70;;;5.80;89.20;;;;;;4916832;29;20477;-77
2021/04/26 06:20:11;;;;;;;5.75;4.78;;;6.10;88.90;;;;;;4916212;29;20541;-78
2021/04/26 06:22:39;;;;;;;8.77;5.23;;;6.40;88.70;;;;;;4915640;29;20317;-77
2021/04/26 06:25:07;;;;;;;7.20;4.57;;;6.70;88.40;;;;;;4915483;29;20451;-77
2021/04/26 06:27:34;;;;;;;8.83;4.17;;;6.90;88.30;;;;;;4916671;29;20439;-77
2021/04/26 06:30:02;;;;;;;4.50;4.10;;;7.10;88.00;;;;;;4916709;29;20427;-78
2021/04/26 06:32:30;;;;;;;4.70;3.53;;;7.30;87.60;;;;;;4916811;29;20462;-77
2021/04/26 06:34:58;;;;;;;5.60;3.17;;;7.50;87.30;;;;;;4916619;29;20459;-78
2021/04/26 06:37:25;;;;;;;5.67;3.53;;;7.70;87.40;;;;;;4916528;29;20494;-78
2021/04/26 06:39:52;;;;;;;5.93;3.40;;;8.00;87.50;;;;;;4916502;29;20423;-78
2021/04/26 06:42:23;;;;;;;7.23;4.20;;;8.30;87.50;;;;;;4916456;29;21015;-78
2021/04/26 06:44:50;;;;;;;4.70;3.07;;;8.50;87.30;;;;;;4916454;29;20425;-78
2021/04/26 06:47:17;;;;;;;8.73;3.10;;;8.80;87.00;;;;;;4916882;29;20469;-78
2021/04/26 06:49:45;;;;;;;7.10;3.17;;;9.00;86.60;;;;;;4920118;29;20447;-78
2021/04/26 06:52:12;;;;;;;4.80;2.53;;;9.30;85.90;;;;;;4918507;29;20569;-78
2021/04/26 06:54:39;;;;;;;6.10;2.50;;;9.40;84.90;;;;;;4919796;29;20917;-78
2021/04/26 06:57:07;;;;;;;5.93;2.53;;;9.50;84.40;;;;;;4919729;29;20476;-78
2021/04/26 06:59:34;;;;;;;4.50;2.87;;;9.60;83.70;;;;;;4918438;29;20802;-78
2021/04/26 07:02:01;;;;;;;4.30;3.10;;;9.60;83.20;;;;;;4918312;29;20487;-78
2021/04/26 07:04:28;;;;;;;3.73;3.13;;;9.80;82.90;;;;;;4919654;29;20972;-78
2021/04/26 07:06:56;;;;;;;6.73;2.33;;;9.90;83.10;;;;;;4918817;29;20441;-79
2021/04/26 07:09:23;;;;;;;5.57;2.80;;;10.10;82.00;;;;;;4918311;29;20870;-78
2021/04/26 07:11:50;;;;;;;2.53;2.33;;;10.40;81.80;;;;;;4918249;29;20909;-78
2021/04/26 07:14:18;;;;;;;3.30;2.50;;;10.50;80.60;;;;;;4919546;29;20451;-78
2021/04/26 07:16:45;;;;;;;4.77;3.10;;;10.60;79.90;;;;;;4919363;29;20505;-77
2021/04/26 07:19:12;;;;;;;3.87;2.40;;;10.70;79.50;;;;;;4919387;29;20496;-78
2021/04/26 07:21:39;;;;;;;4.53;3.30;;;10.80;79.40;;;;;;4919227;29;20430;-78
2021/04/26 07:24:08;;;;;;;7.37;3.20;;;10.90;79.50;;;;;;4919287;29;20441;-78
2021/04/26 07:26:36;;;;;;;3.87;2.17;;;11.00;79.40;;;;;;4917892;29;21018;-78
2021/04/26 07:29:04;;;;;;;5.90;2.83;;;11.20;79.00;;;;;;4917888;29;20954;-78
2021/04/26 07:31:31;;;;;;;5.60;3.00;;;11.40;78.90;;;;;;4919044;29;20449;-78
2021/04/26 07:33:58;;;;;;;4.93;3.00;;;11.40;78.20;;;;;;4919414;29;20459;-79
2021/04/26 07:36:25;;;;;;;6.00;3.20;;;11.50;78.00;;;;;;4917829;29;20517;-79
2021/04/26 07:38:52;;;;;;;6.63;2.43;;;11.50;78.30;;;;;;4917846;29;20464;-78
2021/04/26 07:41:20;;;;;;;6.10;2.43;;;11.70;78.50;;;;;;4919002;29;20980;-79
2021/04/26 07:43:47;;;;;;;3.37;2.27;;;11.90;78.20;;;;;;4918950;29;20829;-78
2021/04/26 07:46:16;;;;;;;2.93;1.87;;;12.10;78.10;;;;;;4919508;29;20508;-79
2021/04/26 07:48:43;;;;;;;3.33;2.60;;;12.30;77.60;;;;;;4918882;29;20454;-78
2021/04/26 07:51:10;;;;;;;3.13;2.00;;;12.40;77.60;;;;;;4918995;29;20498;-79
2021/04/26 07:53:37;;;;;;;3.00;2.13;;;12.60;77.70;;;;;;4918801;29;20439;-79
2021/04/26 07:56:05;;;;;;;4.57;2.13;;;12.90;77.70;;;;;;4917440;29;20464;-79
2021/04/26 07:58:33;;;;;;;3.27;1.77;;;13.10;77.50;;;;;;4917416;29;20459;-79
2021/04/26 08:01:00;;;;;;;3.03;1.37;;;13.30;76.80;;;;;;4918687;29;20455;-79
2021/04/26 08:03:27;;;;;;;6.40;1.87;;;13.40;76.00;;;;;;4917501;29;20452;-79
2021/04/26 08:05:55;;;;;;;2.43;1.30;;;13.60;75.80;;;;;;4918753;29;20524;-79
2021/04/26 08:08:22;;;;;;;2.83;1.20;;;13.70;75.30;;;;;;4917253;29;20426;-79
2021/04/26 08:10:50;;;;;;;2.60;1.13;;;13.80;74.50;;;;;;4918662;29;20955;-79
2021/04/26 08:13:17;;;;;;;3.77;1.67;;;13.90;73.90;;;;;;4917324;29;20534;-79
2021/04/26 08:15:45;;;;;;;2.40;1.70;;;13.90;73.60;;;;;;4917662;29;20441;-79
2021/04/26 08:18:12;;;;;;;2.30;1.53;;;14.10;68.20;;;;;;4918527;29;20473;-79
2021/04/26 08:20:39;;;;;;;2.17;1.23;;;14.10;69.20;;;;;;4917565;29;20423;-79
2021/04/26 08:23:07;;;;;;;3.70;1.77;;;14.20;69.50;;;;;;4917176;29;20468;-79
2021/04/26 08:25:34;;;;;;;4.22;2.20;;;14.10;69.10;;;;;;4919916;29;20446;-79
2021/04/26 08:28:01;;;;;;;3.97;1.73;;;14.20;65.20;;;;;;4921120;29;20181;-79
2021/04/26 08:30:28;;;;;;;2.77;1.33;;;14.30;65.70;;;;;;4922017;29;20479;-78
2021/04/26 08:32:56;;;;;;;2.20;1.73;;;14.30;65.80;;;;;;4922300;29;20467;-78
2021/04/26 08:35:23;;;;;;;2.53;1.23;;;14.20;66.10;;;;;;4920519;29;20516;-78
2021/04/26 08:37:51;;;;;;;2.30;1.17;;;14.20;66.20;;;;;;4920060;29;20558;-78
2021/04/26 08:40:18;;;;;;;2.00;1.30;;;14.30;65.60;;;;;;4917605;29;21051;-79
2021/04/26 08:42:45;;;;;;;1.50;1.20;;;14.30;65.80;;;;;;4917956;29;20576;-79
2021/04/26 08:45:12;;;;;;;3.10;1.60;;;14.30;65.70;;;;;;4918345;29;20456;-79
2021/04/26 08:47:41;;;;;;;3.57;1.27;;;14.30;65.40;;;;;;4918388;29;20432;-79
2021/04/26 08:50:11;;;;;;;1.80;1.00;;;14.40;65.30;;;;;;4919235;29;20441;-79
2021/04/26 08:52:40;;;;;;;2.97;1.50;;;14.40;64.90;;;;;;4919951;29;20475;-79
2021/04/26 08:55:08;;;;;;;4.57;1.47;;;14.20;64.30;;;;;;4919063;29;20423;-80
2021/04/26 08:57:36;;;;;;;4.20;1.67;;;14.00;64.40;;;;;;4919907;29;20647;-80
2021/04/26 09:00:05;;;;;;;2.43;1.67;;;13.80;64.60;;;;;;4920826;29;20431;-79
2021/04/26 09:02:44;;;;;;;2.90;1.50;;;13.70;64.50;;;;;;4920562;29;20480;-80
2021/04/26 09:05:21;;;;;;;1.90;1.50;;;13.70;64.40;;;;;;4921570;29;20775;-79
2021/04/26 09:07:50;;;;;;;2.70;1.60;;;13.80;64.60;;;;;;4920540;29;20429;-80
2021/04/26 09:10:45;;;;;;;2.80;1.80;;;13.90;64.50;;;;;;4918388;29;20442;-79
2021/04/26 09:13:22;;;;;;;2.60;2.00;;;13.90;63.50;;;;;;4921219;29;20539;-80
2021/04/26 09:15:51;;;;;;;2.33;1.50;;;14.00;63.50;;;;;;4921134;29;20530;-80
2021/04/26 09:18:18;;;;;;;3.20;2.10;;;14.20;64.40;;;;;;4920056;29;20980;-79
2021/04/26 09:20:47;;;;;;;4.17;1.83;;;14.30;62.60;;;;;;4918667;29;20552;-80
2021/04/26 09:23:15;;;;;;;2.37;1.90;;;14.30;62.30;;;;;;4920230;29;20495;-79
2021/04/26 09:25:43;;;;;;;3.03;1.83;;;14.40;62.50;;;;;;4921183;29;20494;-80
2021/04/26 09:28:12;;;;;;;2.37;1.63;;;14.50;62.60;;;;;;4919432;29;20452;-79
2021/04/26 09:30:45;;;;;;;4.80;2.33;;;14.60;62.40;;;;;;4920075;29;20447;-79
2021/04/26 09:33:29;;;;;;;3.50;1.90;;;14.60;62.10;;;;;;4920174;29;20518;-78
2021/04/26 09:36:04;;;;;;;3.67;1.80;;;14.80;62.30;;;;;;4921000;29;20528;-80
2021/04/26 09:38:33;;;;;;;2.80;2.00;;;14.80;62.20;;;;;;4921869;29;20519;-79
2021/04/26 09:41:18;;;;;;;2.20;1.93;;;14.80;62.50;;;;;;4921838;29;20444;-79
2021/04/26 09:43:49;;;;;;;5.23;1.87;;;14.60;60.60;;;;;;4919467;29;20524;-80
2021/04/26 09:46:18;;;;;;;2.75;2.10;;;14.40;60.70;;;;;;4918904;29;20549;-78
2021/04/26 09:48:45;;;;;;;2.43;1.70;;;14.30;58.00;;;;;;4919726;29;20203;-80
2021/04/26 09:51:19;;;;;;;2.60;2.03;;;14.20;58.60;;;;;;4920608;29;20431;-80
2021/04/26 09:53:52;;;;;;;2.10;1.83;;;14.10;59.00;;;;;;4919203;29;20447;-79
2021/04/26 09:56:21;;;;;;;2.80;1.90;;;14.10;59.00;;;;;;4919501;29;20457;-79
2021/04/26 09:58:51;;;;;;;3.40;2.00;;;14.30;57.20;;;;;;4919212;29;20213;-79
2021/04/26 10:01:19;;;;;;;3.40;1.60;;;14.40;57.60;;;;;;4920580;29;20477;-79
2021/04/26 10:03:47;;;;;;;3.63;1.90;;;14.40;58.00;;;;;;4918919;29;20504;-79
2021/04/26 10:06:19;;;;;;;2.77;1.90;;;14.50;58.60;;;;;;4920118;29;20424;-80
2021/04/26 10:08:47;;;;;;;2.83;1.93;;;14.50;58.80;;;;;;4920885;29;20425;-79
2021/04/26 10:11:16;;;;;;;4.27;2.27;;;14.70;59.10;;;;;;4919306;29;20473;-79
2021/04/26 10:13:45;;;;;;;2.90;2.17;;;14.90;59.20;;;;;;4920397;29;20447;-79
2021/04/26 10:16:15;;;;;;;4.53;2.70;;;15.00;58.90;;;;;;4920482;29;20453;-80
2021/04/26 10:18:44;;;;;;;2.63;1.90;;;15.10;58.50;;;;;;4921427;29;20445;-80
2021/04/26 10:21:33;;;;;;;3.57;2.10;;;15.00;57.90;;;;;;4922349;29;20484;-80
2021/04/26 10:24:17;;;;;;;2.73;2.00;;;14.70;57.70;;;;;;4925844;29;20475;-80
2021/04/26 10:26:51;;;;;;;3.20;1.87;;;14.50;57.50;;;;;;4925087;29;20512;-79
2021/04/26 10:29:24;;;;;;;3.17;1.70;;;14.30;57.70;;;;;;4927059;29;20417;-79
2021/04/26 10:32:04;;;;;;;2.57;1.87;;;14.10;57.30;;;;;;4925077;29;20443;-79
2021/04/26 10:34:34;;;;;;;2.67;1.90;;;14.00;57.10;;;;;;4924096;29;20928;-79
2021/04/26 10:37:04;;;;;;;3.03;1.70;;;13.90;57.50;;;;;;4923948;29;20447;-79
2021/04/26 10:39:34;;;;;;;4.47;1.83;;;13.90;57.30;;;;;;4925298;29;20420;-79
2021/04/26 10:42:05;;;;;;;2.70;2.00;;;14.00;57.20;;;;;;4924362;29;20551;-79
2021/04/26 10:44:54;;;;;;;2.83;1.70;;;14.00;57.30;;;;;;4925781;29;20949;-79
2021/04/26 10:47:34;;;;;;;2.30;2.00;;;14.00;57.50;;;;;;4925314;29;20433;-79
2021/04/26 10:50:28;;;;;;;3.27;2.10;;;14.00;57.50;;;;;;4924286;29;20419;-79
2021/04/26 10:52:59;;;;;;;3.10;1.93;;;14.00;57.00;;;;;;4923973;29;20482;-81
2021/04/26 10:55:51;;;;;;;1.77;1.67;;;13.90;57.30;;;;;;4923987;29;20433;-80
2021/04/26 10:58:39;;;;;;;2.67;2.43;;;13.80;57.10;;;;;;4925138;29;20813;-80
2021/04/26 11:01:09;;;;;;;4.00;2.27;;;13.90;57.50;;;;;;4925975;29;20422;-80
2021/04/26 11:03:39;;;;;;;3.30;2.00;;;14.10;57.80;;;;;;4924419;29;20480;-80
2021/04/26 11:06:18;;;;;;;4.47;2.10;;;14.30;57.70;;;;;;4923431;29;20543;-80
2021/04/26 11:08:50;;;;;;;4.23;1.90;;;14.60;56.00;;;;;;4924886;29;20173;-80
2021/04/26 11:11:19;;;;;;;4.00;2.20;;;14.60;55.70;;;;;;4925138;29;20503;-80
2021/04/26 11:13:52;;;;;;;2.40;1.83;;;14.40;55.80;;;;;;4923703;29;20873;-80
2021/04/26 11:16:40;;;;;;;2.60;2.10;;;14.30;55.90;;;;;;4922679;29;20458;-80
2021/04/26 11:19:12;;;;;;;4.93;1.93;;;14.20;54.20;;;;;;4924042;29;20211;-79
2021/04/26 11:22:03;;;;;;;3.00;1.90;;;14.00;54.40;;;;;;4925073;29;20873;-79
2021/04/26 11:25:03;;;;;;;3.33;2.10;;;13.90;55.00;;;;;;4920461;29;20825;-80
2021/04/26 11:27:39;;;;;;;3.63;2.20;;;13.80;55.50;;;;;;4924756;29;20445;-80
2021/04/26 11:30:21;;;;;;;5.20;2.07;;;14.00;55.90;;;;;;4925284;29;20432;-80
2021/04/26 11:33:10;;;;;;;3.57;2.33;;;14.10;55.90;;;;;;4923188;29;20490;-80
2021/04/26 11:36:07;;;;;;;3.13;1.70;;;14.20;55.80;;;;;;4923730;29;20917;-80
2021/04/26 11:38:35;;;;;;;3.50;2.23;;;14.30;56.00;;;;;;4924801;29;20455;-80
2021/04/26 11:41:03;;;;;;;2.77;2.20;;;14.40;56.10;;;;;;4924975;29;20895;-80
2021/04/26 11:43:30;;;;;;;3.77;2.30;;;14.50;55.90;;;;;;4923486;29;20483;-80
2021/04/26 11:45:58;;;;;;;3.20;1.87;;;14.50;55.80;;;;;;4924848;29;20476;-81
2021/04/26 11:48:27;;;;;;;2.33;1.60;;;14.60;55.60;;;;;;4925225;29;20446;-81
2021/04/26 11:50:54;;;;;;;2.73;1.80;;;14.60;55.50;;;;;;4923819;29;20514;-81
2021/04/26 11:53:27;;;;;;;9.77;2.27;;;14.60;55.30;;;;;;4923900;29;20484;-81
2021/04/26 11:55:55;;;;;;;3.53;2.20;;;14.60;55.40;;;;;;4924031;29;20547;-81
2021/04/26 11:58:27;;;;;;;3.30;2.20;;;14.70;55.90;;;;;;4923542;29;20468;-80
2021/04/26 12:01:06;;;;;;;2.70;1.93;;;14.60;55.70;;;;;;4925802;29;20470;-81
2021/04/26 12:03:51;;;;;;;4.73;2.03;;;14.60;54.70;;;;;;4924663;29;20944;-81
2021/04/26 12:06:20;;;;;;;3.40;2.37;;;14.60;55.00;;;;;;4923841;29;20422;-80
2021/04/26 12:08:48;;;;;;;85.83;19.33;;;14.60;54.70;;;;;;4923503;29;20962;-80
2021/04/26 12:11:17;;;;;;;6.20;3.73;;;14.60;54.80;;;;;;4923335;29;20570;-80
2021/04/26 12:13:45;;;;;;;4.77;1.70;;;14.60;54.70;;;;;;4923218;29;20516;-81
2021/04/26 12:16:25;;;;;;;4.10;1.80;;;14.60;54.90;;;;;;4923100;29;20941;-81
2021/04/26 12:19:01;;;;;;;3.53;1.90;;;14.60;54.60;;;;;;4922825;29;20465;-80
2021/04/26 12:21:29;;;;;;;3.73;2.23;;;14.70;54.70;;;;;;4923016;29;20828;-80
2021/04/26 12:23:56;;;;;;;3.10;1.80;;;14.70;54.70;;;;;;4924383;29;20502;-80
2021/04/26 12:26:24;;;;;;;5.90;2.00;;;14.60;54.70;;;;;;4923824;29;20452;-80
2021/04/26 12:28:52;;;;;;;3.30;1.80;;;14.50;54.00;;;;;;4924893;29;20499;-80
2021/04/26 12:31:24;;;;;;;2.50;1.80;;;14.50;54.30;;;;;;4923798;29;20480;-81
2021/04/26 12:33:52;;;;;;;2.80;2.07;;;14.40;54.20;;;;;;4924508;29;20443;-81
2021/04/26 12:36:20;;;;;;;2.33;1.70;;;14.30;54.30;;;;;;4923829;29;20959;-81
2021/04/26 12:38:50;;;;;;;3.53;2.07;;;14.20;54.20;;;;;;4924222;29;20583;-80
2021/04/26 12:41:18;;;;;;;3.63;2.17;;;14.30;54.30;;;;;;4924121;29;20448;-80
2021/04/26 12:43:53;;;;;;;4.60;1.90;;;14.30;54.30;;;;;;4923057;29;20953;-80
2021/04/26 12:46:22;;;;;;;3.60;2.37;;;14.30;53.90;;;;;;4921509;29;20880;-80
2021/04/26 12:48:51;;;;;;;4.20;2.00;;;14.30;54.00;;;;;;4923400;29;20438;-80
2021/04/26 12:51:29;;;;;;;2.47;2.13;;;14.20;53.90;;;;;;4923272;29;20420;-80
2021/04/26 12:54:09;;;;;;;4.47;2.00;;;14.20;54.00;;;;;;4922798;29;20568;-80
2021/04/26 12:56:36;;;;;;;3.00;2.23;;;14.30;54.10;;;;;;4922936;29;20452;-80
2021/04/26 12:59:05;;;;;;;4.27;2.07;;;14.30;53.90;;;;;;4922911;29;20487;-80
2021/04/26 13:01:32;;;;;;;3.20;2.00;;;14.30;53.70;;;;;;4923229;29;20832;-80
2021/04/26 13:04:00;;;;;;;3.20;1.80;;;14.30;53.30;;;;;;4923056;29;20396;-80
2021/04/26 13:06:29;;;;;;;3.10;1.93;;;14.20;53.30;;;;;;4924241;29;20443;-80
2021/04/26 13:08:57;;;;;;;2.93;2.10;;;14.20;53.20;;;;;;4923399;29;20455;-81
2021/04/26 13:11:28;;;;;;;2.60;1.60;;;14.10;53.10;;;;;;4923680;29;20411;-81
2021/04/26 13:13:57;;;;;;;2.70;1.97;;;14.10;53.30;;;;;;4923411;29;20563;-80
2021/04/26 13:16:27;;;;;;;2.90;1.60;;;14.10;53.50;;;;;;4922374;29;20819;-80
2021/04/26 13:18:57;;;;;;;2.00;1.80;;;14.00;52.90;;;;;;4922107;29;20479;-80